createdAt,value
2018-04-07T00:00:10.165Z,3.03
2018-04-07T00:02:37.799Z,3.20
2018-04-07T00:05:05.404Z,3.23
2018-04-07T00:07:33.024Z,3.10
2018-04-07T00:10:00.636Z,3.10
2018-04-07T00:12:28.248Z,2.87
2018-04-07T00:14:55.860Z,3.10
2018-04-07T00:17:23.518Z,3.00
2018-04-07T00:19:51.129Z,2.80
2018-04-07T00:22:18.740Z,3.27
2018-04-07T00:24:46.361Z,3.40
2018-04-07T00:27:14.737Z,3.53
2018-04-07T00:29:43.117Z,3.40
2018-04-07T00:32:11.500Z,3.40
2018-04-07T00:34:39.883Z,2.70
2018-04-07T00:37:08.256Z,3.07
2018-04-07T00:39:36.643Z,3.03
2018-04-07T00:42:05.025Z,2.90
2018-04-07T00:44:32.641Z,2.63
2018-04-07T00:47:00.249Z,3.20
2018-04-07T00:49:27.874Z,3.13
2018-04-07T00:51:55.496Z,3.20
2018-04-07T00:54:23.884Z,3.50
2018-04-07T00:56:52.262Z,3.80
2018-04-07T00:59:20.692Z,2.80
2018-04-07T01:01:48.311Z,3.80
2018-04-07T01:04:15.917Z,3.67
2018-04-07T01:06:43.525Z,3.43
2018-04-07T01:09:11.131Z,3.20
2018-04-07T01:11:38.746Z,3.20
2018-04-07T01:14:07.214Z,2.93
2018-04-07T01:16:34.793Z,3.33
2018-04-07T01:19:02.408Z,3.47
2018-04-07T01:21:30.024Z,3.13
2018-04-07T01:23:57.636Z,3.60
2018-04-07T01:26:25.254Z,3.97
2018-04-07T01:28:52.864Z,3.83
2018-04-07T01:31:20.476Z,3.30
2018-04-07T01:33:48.088Z,3.63
2018-04-07T01:36:16.469Z,3.50
2018-04-07T01:38:44.856Z,3.50
2018-04-07T01:41:13.236Z,3.50
2018-04-07T01:43:41.618Z,3.67
2018-04-07T01:46:10.044Z,3.40
2018-04-07T01:48:38.364Z,3.60
2018-04-07T01:51:05.972Z,3.60
2018-04-07T01:53:33.588Z,3.50
2018-04-07T01:56:01.217Z,3.07
2018-04-07T01:58:28.834Z,3.63
2018-04-07T02:00:56.445Z,3.03
2018-04-07T02:03:24.052Z,3.40
2018-04-07T02:05:51.666Z,3.00
2018-04-07T02:08:19.283Z,3.10
2018-04-07T02:10:46.897Z,3.30
2018-04-07T02:13:14.512Z,3.43
2018-04-07T02:15:42.128Z,3.90
2018-04-07T02:18:09.744Z,3.97
2018-04-07T02:20:37.373Z,4.17
2018-04-07T02:23:04.984Z,3.73
2018-04-07T02:25:32.605Z,3.97
2018-04-07T02:28:00.224Z,4.13
2018-04-07T02:30:27.854Z,3.83
2018-04-07T02:32:55.479Z,3.93
2018-04-07T02:35:23.846Z,3.60
2018-04-07T02:37:52.224Z,4.13
2018-04-07T02:40:20.601Z,3.70
2018-04-07T02:42:48.999Z,4.10
2018-04-07T02:45:17.374Z,4.00
2018-04-07T02:47:45.762Z,3.27
2018-04-07T02:50:14.132Z,3.80
2018-04-07T02:52:41.753Z,3.63
2018-04-07T02:55:09.368Z,4.30
2018-04-07T02:57:36.985Z,4.33
2018-04-07T03:00:04.601Z,4.20
2018-04-07T03:02:32.217Z,3.80
2018-04-07T03:04:59.844Z,3.87
2018-04-07T03:07:28.212Z,4.23
2018-04-07T03:09:56.595Z,3.73
2018-04-07T03:12:24.982Z,3.73
2018-04-07T03:14:52.711Z,4.40
2018-04-07T03:17:20.293Z,4.63
2018-04-07T03:19:47.908Z,4.43
2018-04-07T03:22:15.536Z,4.37
2018-04-07T03:24:43.149Z,4.70
2018-04-07T03:27:10.769Z,4.80
2018-04-07T03:29:38.376Z,4.50
2018-04-07T03:32:05.997Z,4.37
2018-04-07T03:34:33.614Z,4.97
2018-04-07T03:37:01.228Z,4.60
2018-04-07T03:39:28.844Z,5.10
2018-04-07T03:41:56.469Z,4.20
2018-04-07T03:44:24.076Z,4.53
2018-04-07T03:46:51.689Z,5.03
2018-04-07T03:49:19.296Z,4.80
2018-04-07T03:51:46.917Z,4.60
2018-04-07T03:54:14.528Z,4.37
2018-04-07T03:56:42.137Z,4.93
2018-04-07T03:59:09.748Z,5.10
2018-04-07T04:01:37.372Z,4.63
2018-04-07T04:04:04.983Z,4.70
2018-04-07T04:06:32.600Z,5.13
2018-04-07T04:09:00.216Z,4.93
2018-04-07T04:11:27.832Z,5.20
2018-04-07T04:13:55.448Z,4.70
2018-04-07T04:16:23.065Z,5.60
2018-04-07T04:18:50.676Z,5.13
2018-04-07T04:21:18.292Z,5.13
2018-04-07T04:23:45.925Z,4.70
2018-04-07T04:26:13.524Z,4.53
2018-04-07T04:28:41.140Z,5.90
2018-04-07T04:31:08.756Z,5.10
2018-04-07T04:33:36.380Z,5.30
2018-04-07T04:36:04.004Z,4.83
2018-04-07T04:38:31.619Z,5.17
2018-04-07T04:40:59.236Z,5.50
2018-04-07T04:43:26.848Z,5.00
2018-04-07T04:45:54.456Z,5.47
2018-04-07T04:48:22.076Z,5.60
2018-04-07T04:50:49.701Z,5.30
2018-04-07T04:53:17.316Z,4.67
2018-04-07T04:55:44.932Z,4.87
2018-04-07T04:58:12.539Z,5.43
2018-04-07T05:00:40.165Z,5.27
2018-04-07T05:03:07.780Z,6.25
2018-04-07T05:05:35.410Z,11.53
2018-04-07T05:08:03.793Z,7.63
2018-04-07T05:10:32.179Z,8.80
2018-04-07T05:13:00.560Z,7.03
2018-04-07T05:15:28.931Z,6.43
2018-04-07T05:17:57.316Z,5.80
2018-04-07T05:20:25.692Z,5.20
2018-04-07T05:22:53.311Z,5.90
2018-04-07T05:25:20.920Z,5.63
2018-04-07T05:27:49.300Z,6.20
2018-04-07T05:30:16.908Z,5.77
2018-04-07T05:32:44.516Z,5.03
2018-04-07T05:35:12.136Z,5.53
2018-04-07T05:37:39.764Z,5.53
2018-04-07T05:40:07.380Z,5.63
2018-04-07T05:42:34.989Z,6.00
2018-04-07T05:45:02.612Z,5.33
2018-04-07T05:47:30.225Z,4.70
2018-04-07T05:49:57.837Z,4.57
2018-04-07T05:52:25.449Z,5.90
2018-04-07T05:54:53.062Z,5.43
2018-04-07T05:57:20.677Z,4.90
2018-04-07T05:59:48.293Z,5.53
2018-04-07T06:02:15.913Z,5.50
2018-04-07T06:04:43.528Z,5.80
2018-04-07T06:07:11.140Z,5.03
2018-04-07T06:09:38.757Z,5.27
2018-04-07T06:12:06.376Z,5.37
2018-04-07T06:14:33.995Z,6.13
2018-04-07T06:17:01.600Z,5.03
2018-04-07T06:19:29.220Z,6.10
2018-04-07T06:21:56.845Z,6.10
2018-04-07T06:24:24.447Z,5.93
2018-04-07T06:26:52.060Z,5.97
2018-04-07T06:29:19.674Z,5.23
2018-04-07T06:31:47.294Z,5.17
2018-04-07T06:34:14.915Z,5.30
2018-04-07T06:36:42.524Z,5.53
2018-04-07T06:39:10.154Z,5.67
2018-04-07T06:41:37.769Z,5.23
2018-04-07T06:44:05.384Z,5.13
2018-04-07T06:46:33.044Z,5.43
2018-04-07T06:49:00.664Z,4.90
2018-04-07T06:51:28.271Z,5.30
2018-04-07T06:53:55.888Z,4.93
2018-04-07T06:56:23.505Z,5.00
2018-04-07T06:58:51.121Z,4.50
2018-04-07T07:01:18.741Z,5.37
2018-04-07T07:03:46.351Z,5.00
2018-04-07T07:06:13.969Z,5.40
2018-04-07T07:08:41.596Z,4.90
2018-04-07T07:11:09.212Z,5.17
2018-04-07T07:13:36.846Z,4.90
2018-04-07T07:16:05.289Z,5.23
2018-04-07T07:18:32.912Z,5.13
2018-04-07T07:21:00.528Z,5.40
2018-04-07T07:23:28.153Z,4.73
2018-04-07T07:25:55.777Z,4.40
2018-04-07T07:28:23.401Z,4.87
2018-04-07T07:30:51.016Z,5.20
2018-04-07T07:33:19.397Z,4.30
2018-04-07T07:35:47.784Z,4.93
2018-04-07T07:38:16.169Z,4.83
2018-04-07T07:40:44.550Z,4.87
2018-04-07T07:43:12.168Z,4.97
2018-04-07T07:45:39.789Z,4.93
2018-04-07T07:48:08.172Z,5.10
2018-04-07T07:50:36.561Z,4.80
2018-04-07T07:53:04.952Z,4.53
2018-04-07T07:55:32.572Z,4.50
2018-04-07T07:58:00.188Z,5.07
2018-04-07T08:00:27.880Z,4.57
2018-04-07T08:02:55.494Z,4.60
2018-04-07T08:05:23.120Z,4.73
2018-04-07T08:07:50.741Z,4.63
2018-04-07T08:10:18.364Z,5.00
2018-04-07T08:12:45.985Z,4.77
2018-04-07T08:15:13.604Z,4.90
2018-04-07T08:17:41.217Z,4.80
2018-04-07T08:20:08.832Z,4.20
2018-04-07T08:22:36.448Z,5.07
2018-04-07T08:25:04.060Z,4.73
2018-04-07T08:27:31.689Z,4.80
2018-04-07T08:29:59.320Z,4.60
2018-04-07T08:32:26.932Z,4.67
2018-04-07T08:34:54.557Z,5.10
2018-04-07T08:37:22.206Z,4.70
2018-04-07T08:39:49.816Z,4.47
2018-04-07T08:42:17.431Z,4.80
2018-04-07T08:44:45.972Z,4.53
2018-04-07T08:47:13.600Z,4.97
2018-04-07T08:49:41.209Z,4.77
2018-04-07T08:52:08.824Z,4.97
2018-04-07T08:54:36.445Z,4.97
2018-04-07T08:57:04.064Z,4.97
2018-04-07T08:59:32.448Z,4.57
2018-04-07T09:02:00.840Z,4.63
2018-04-07T09:04:29.221Z,5.20
2018-04-07T09:06:57.167Z,5.00
2018-04-07T09:09:24.776Z,4.90
2018-04-07T09:11:52.405Z,5.00
2018-04-07T09:14:20.012Z,5.30
2018-04-07T09:16:47.628Z,4.57
2018-04-07T09:19:15.248Z,3.93
2018-04-07T09:21:42.874Z,4.70
2018-04-07T09:24:10.482Z,5.10
2018-04-07T09:26:38.099Z,5.03
2018-04-07T09:29:05.721Z,4.97
2018-04-07T09:31:33.365Z,5.40
2018-04-07T09:34:00.981Z,4.77
2018-04-07T09:36:28.596Z,5.40
2018-04-07T09:38:56.217Z,5.17
2018-04-07T09:41:23.844Z,5.07
2018-04-07T09:43:51.465Z,4.97
2018-04-07T09:46:19.084Z,5.43
2018-04-07T09:48:46.706Z,4.77
2018-04-07T09:51:15.086Z,5.40
2018-04-07T09:53:43.464Z,6.07
2018-04-07T09:56:11.852Z,5.43
2018-04-07T09:58:39.467Z,5.30
2018-04-07T10:01:07.088Z,5.40
2018-04-07T10:03:35.474Z,4.60
2018-04-07T10:06:03.865Z,5.10
2018-04-07T10:08:31.490Z,4.93
2018-04-07T10:10:59.117Z,5.40
2018-04-07T10:13:26.732Z,4.80
2018-04-07T10:15:55.116Z,4.43
2018-04-07T10:18:22.736Z,4.73
2018-04-07T10:20:50.373Z,4.97
2018-04-07T10:23:17.991Z,4.50
2018-04-07T10:25:45.608Z,4.43
2018-04-07T10:28:13.227Z,4.03
2018-04-07T10:30:40.840Z,4.30
2018-04-07T10:33:08.556Z,4.00
2018-04-07T10:35:36.148Z,4.73
2018-04-07T10:38:03.773Z,4.60
2018-04-07T10:40:31.400Z,4.63
2018-04-07T10:42:59.027Z,3.90
2018-04-07T10:45:26.645Z,3.97
2018-04-07T10:47:54.268Z,4.27
2018-04-07T10:50:21.879Z,4.00
2018-04-07T10:52:49.532Z,3.93
2018-04-07T10:55:17.116Z,4.37
2018-04-07T10:57:44.744Z,4.07
2018-04-07T11:00:12.789Z,3.80
2018-04-07T11:02:40.423Z,4.03
2018-04-07T11:05:08.040Z,3.83
2018-04-07T11:07:35.658Z,3.90
2018-04-07T11:10:03.280Z,3.80
2018-04-07T11:12:30.907Z,3.17
2018-04-07T11:14:59.454Z,3.20
2018-04-07T11:17:27.068Z,3.60
2018-04-07T11:19:54.687Z,3.20
2018-04-07T11:22:22.308Z,3.13
2018-04-07T11:24:49.936Z,3.10
2018-04-07T11:27:17.556Z,3.00
2018-04-07T11:29:45.168Z,2.90
2018-04-07T11:32:12.796Z,3.00
2018-04-07T11:34:40.415Z,3.50
2018-04-07T11:37:08.036Z,3.27
2018-04-07T11:39:36.424Z,3.10
2018-04-07T11:42:04.812Z,3.00
2018-04-07T11:44:33.196Z,2.90
2018-04-07T11:47:00.813Z,3.10
2018-04-07T11:49:28.430Z,3.10
2018-04-07T11:51:56.054Z,3.43
2018-04-07T11:54:23.674Z,2.90
2018-04-07T11:56:51.292Z,2.93
2018-04-07T11:59:18.924Z,2.80
2018-04-07T12:01:46.545Z,3.30
2018-04-07T12:04:14.937Z,2.87
2018-04-07T12:06:43.324Z,3.00
2018-04-07T12:09:10.933Z,3.00
2018-04-07T12:11:38.582Z,3.43
2018-04-07T12:14:06.181Z,3.03
2018-04-07T12:16:33.800Z,3.17
2018-04-07T12:19:01.424Z,5.33
2018-04-07T12:21:29.040Z,3.03
2018-04-07T12:23:56.655Z,3.27
2018-04-07T12:26:24.283Z,3.43
2018-04-07T12:28:51.917Z,3.50
2018-04-07T12:31:19.528Z,3.03
2018-04-07T12:33:47.155Z,3.83
2018-04-07T12:36:14.866Z,3.43
2018-04-07T12:38:42.460Z,3.33
2018-04-07T12:41:10.847Z,3.63
2018-04-07T12:43:39.227Z,4.07
2018-04-07T12:46:06.844Z,4.17
2018-04-07T12:48:34.457Z,3.80
2018-04-07T12:51:02.835Z,3.47
2018-04-07T12:53:31.231Z,3.60
2018-04-07T12:55:59.608Z,4.03
2018-04-07T12:58:27.987Z,3.70
2018-04-07T13:00:56.378Z,3.83
2018-04-07T13:03:24.760Z,3.67
2018-04-07T13:05:53.152Z,3.93
2018-04-07T13:08:21.535Z,3.97
2018-04-07T13:10:49.913Z,3.90
2018-04-07T13:13:18.305Z,4.10
2018-04-07T13:15:45.928Z,3.57
2018-04-07T13:18:13.548Z,3.47
2018-04-07T13:20:41.160Z,3.57
2018-04-07T13:23:08.780Z,3.50
2018-04-07T13:25:36.400Z,3.47
2018-04-07T13:28:04.789Z,3.73
2018-04-07T13:30:32.404Z,3.10
2018-04-07T13:33:00.020Z,3.70
2018-04-07T13:35:27.639Z,3.63
2018-04-07T13:37:55.252Z,3.50
2018-04-07T13:40:22.876Z,3.60
2018-04-07T13:42:50.500Z,3.17
2018-04-07T13:45:18.877Z,3.17
2018-04-07T13:47:47.272Z,3.43
2018-04-07T13:50:15.673Z,3.33
2018-04-07T13:52:43.285Z,3.70
2018-04-07T13:55:10.960Z,3.53
2018-04-07T13:57:38.576Z,3.20
2018-04-07T14:00:06.204Z,3.50
2018-04-07T14:02:33.823Z,3.37
2018-04-07T14:05:01.440Z,3.23
2018-04-07T14:07:29.886Z,2.97
2018-04-07T14:09:57.465Z,3.00
2018-04-07T14:12:25.081Z,3.17
2018-04-07T14:14:52.692Z,3.33
2018-04-07T14:17:20.304Z,2.73
2018-04-07T14:19:48.345Z,4.53
2018-04-07T14:22:15.967Z,3.30
2018-04-07T14:24:43.580Z,3.03
2018-04-07T14:27:11.198Z,3.90
2018-04-07T14:29:38.820Z,3.40
2018-04-07T14:32:07.201Z,3.60
2018-04-07T14:34:35.572Z,3.10
2018-04-07T14:37:03.188Z,3.27
2018-04-07T14:39:30.812Z,2.80
2018-04-07T14:41:58.437Z,2.70
2018-04-07T14:44:26.059Z,3.10
2018-04-07T14:46:54.440Z,2.80
2018-04-07T14:49:22.836Z,3.17
2018-04-07T14:51:51.211Z,2.97
2018-04-07T14:54:19.600Z,3.17
2018-04-07T14:56:47.247Z,3.07
2018-04-07T14:59:14.872Z,2.70
2018-04-07T15:01:42.485Z,2.80
2018-04-07T15:04:10.876Z,2.80
2018-04-07T15:06:39.261Z,2.40
2018-04-07T15:09:07.666Z,3.00
2018-04-07T15:14:09.306Z,3.07
2018-04-07T15:16:36.925Z,2.73
2018-04-07T15:19:04.548Z,3.33
2018-04-07T15:21:32.933Z,3.33
2018-04-07T15:24:01.309Z,3.10
2018-04-07T15:26:29.700Z,3.40
2018-04-07T15:28:58.100Z,3.00
2018-04-07T15:31:25.724Z,3.00
2018-04-07T15:33:53.343Z,3.10
2018-04-07T15:36:20.962Z,3.03
2018-04-07T15:38:49.366Z,3.50
2018-04-07T15:41:17.004Z,3.10
2018-04-07T15:43:44.627Z,3.03
2018-04-07T15:46:12.249Z,3.80
2018-04-07T15:48:39.888Z,3.40
2018-04-07T15:51:07.538Z,3.67
2018-04-07T15:53:35.135Z,4.30
2018-04-07T15:56:02.752Z,4.10
2018-04-07T15:58:30.372Z,3.77
2018-04-07T16:00:57.988Z,3.70
2018-04-07T16:03:25.628Z,3.30
2018-04-07T16:05:53.248Z,3.40
2018-04-07T16:08:20.868Z,3.20
2018-04-07T16:10:48.487Z,3.23
2018-04-07T16:13:16.099Z,3.23
2018-04-07T16:15:43.715Z,3.53
2018-04-07T16:18:11.344Z,3.60
2018-04-07T16:20:39.041Z,3.80
2018-04-07T16:23:06.656Z,4.90
2018-04-07T16:25:34.280Z,3.90
2018-04-07T16:28:01.891Z,3.83
2018-04-07T16:30:29.512Z,3.17
2018-04-07T16:32:57.132Z,3.57
2018-04-07T16:35:24.813Z,3.60
2018-04-07T16:37:52.376Z,4.53
2018-04-07T16:40:20.013Z,3.20
2018-04-07T16:42:47.628Z,3.37
2018-04-07T16:45:15.329Z,3.30
2018-04-07T16:47:42.876Z,3.30
2018-04-07T16:50:10.498Z,4.77
2018-04-07T16:52:38.173Z,4.17
2018-04-07T16:55:05.728Z,3.60
2018-04-07T16:57:33.365Z,5.57
2018-04-07T17:00:01.752Z,3.83
2018-04-07T17:02:29.383Z,3.83
2018-04-07T17:04:57.004Z,3.80
2018-04-07T17:07:24.620Z,5.23
2018-04-07T17:09:52.248Z,3.93
2018-04-07T17:12:19.871Z,3.63
2018-04-07T17:14:48.252Z,4.63
2018-04-07T17:17:16.649Z,4.70
2018-04-07T17:19:44.272Z,4.97
2018-04-07T17:22:11.896Z,4.07
2018-04-07T17:24:39.517Z,4.13
2018-04-07T17:27:07.136Z,4.40
2018-04-07T17:29:34.758Z,4.27
2018-04-07T17:32:02.381Z,4.27
2018-04-07T17:34:29.995Z,3.93
2018-04-07T17:36:58.393Z,3.90
2018-04-07T17:39:26.773Z,4.10
2018-04-07T17:41:55.155Z,4.43
2018-04-07T17:44:23.532Z,4.30
2018-04-07T17:46:51.156Z,4.10
2018-04-07T17:49:18.781Z,4.20
2018-04-07T17:51:46.405Z,3.97
2018-04-07T17:54:14.040Z,4.10
2018-04-07T17:56:41.669Z,5.63
2018-04-07T17:59:10.052Z,8.90
2018-04-07T18:01:38.436Z,10.40
2018-04-07T18:04:06.060Z,10.17
2018-04-07T18:06:33.793Z,9.77
2018-04-07T18:09:01.407Z,8.13
2018-04-07T18:11:29.074Z,6.83
2018-04-07T18:13:56.661Z,7.00
2018-04-07T18:16:25.049Z,5.70
2018-04-07T18:18:52.672Z,6.50
2018-04-07T18:21:20.373Z,6.33
2018-04-07T18:23:48.762Z,8.53
2018-04-07T18:26:17.148Z,19.77
2018-04-07T18:28:44.785Z,13.87
2018-04-07T18:31:13.184Z,16.37
2018-04-07T18:33:41.582Z,24.00
2018-04-07T18:36:09.977Z,28.10
2018-04-07T18:38:37.597Z,59.53
2018-04-07T18:41:05.237Z,31.50
2018-04-07T18:43:32.867Z,24.77
2018-04-07T18:46:00.504Z,28.63
2018-04-07T18:48:28.483Z,47.90
2018-04-07T18:50:56.108Z,13.07
2018-04-07T18:53:23.736Z,12.63
2018-04-07T18:55:52.295Z,10.93
2018-04-07T18:58:19.921Z,8.87
2018-04-07T19:00:48.330Z,8.52
2018-04-07T19:03:15.983Z,8.37
2018-04-07T19:05:43.571Z,9.00
2018-04-07T19:08:11.196Z,9.70
2018-04-07T19:10:38.819Z,10.50
2018-04-07T19:13:06.452Z,8.83
2018-04-07T19:15:34.085Z,7.87
2018-04-07T19:18:01.709Z,6.53
2018-04-07T19:20:29.349Z,6.40
2018-04-07T19:22:56.970Z,5.97
2018-04-07T19:25:24.591Z,5.30
2018-04-07T19:27:52.211Z,4.80
2018-04-07T19:30:19.824Z,5.27
2018-04-07T19:32:47.436Z,4.57
2018-04-07T19:35:15.057Z,4.70
2018-04-07T19:37:42.668Z,3.70
2018-04-07T19:40:10.297Z,4.17
2018-04-07T19:42:37.910Z,4.13
2018-04-07T19:45:05.587Z,4.33
2018-04-07T19:47:33.311Z,4.10
2018-04-07T19:50:00.914Z,4.17
2018-04-07T19:52:28.532Z,4.13
2018-04-07T19:54:56.150Z,4.17
2018-04-07T19:57:23.782Z,4.53
2018-04-07T19:59:51.412Z,4.20
2018-04-07T20:02:19.036Z,4.27
2018-04-07T20:04:46.664Z,4.47
2018-04-07T20:07:15.325Z,4.57
2018-04-07T20:09:42.945Z,4.33
2018-04-07T20:12:11.325Z,5.00
2018-04-07T20:14:38.953Z,5.57
2018-04-07T20:17:06.573Z,9.07
2018-04-07T20:19:34.195Z,4.97
2018-04-07T20:22:01.822Z,6.00
2018-04-07T20:24:29.442Z,5.03
2018-04-07T20:26:57.824Z,4.80
2018-04-07T20:29:25.439Z,4.20
2018-04-07T20:31:53.065Z,3.87
2018-04-07T20:34:21.428Z,4.00
2018-04-07T20:36:49.812Z,3.93
2018-04-07T20:39:17.448Z,3.80
2018-04-07T20:41:45.064Z,3.87
2018-04-07T20:44:12.688Z,3.90
2018-04-07T20:46:40.453Z,3.90
2018-04-07T20:49:10.121Z,3.63
2018-04-07T20:51:37.688Z,4.87
2018-04-07T20:54:05.321Z,4.37
2018-04-07T20:56:32.936Z,4.47
2018-04-07T20:59:00.552Z,4.07
2018-04-07T21:01:28.164Z,3.97
2018-04-07T21:03:55.780Z,4.20
2018-04-07T21:06:23.400Z,4.43
2018-04-07T21:08:51.013Z,4.00
2018-04-07T21:11:18.628Z,4.03
2018-04-07T21:13:46.256Z,4.47
2018-04-07T21:16:14.636Z,4.17
2018-04-07T21:18:43.030Z,4.57
2018-04-07T21:21:10.652Z,4.27
2018-04-07T21:23:38.268Z,3.80
2018-04-07T21:26:06.712Z,4.17
2018-04-07T21:28:34.374Z,4.83
2018-04-07T21:31:02.005Z,4.53
2018-04-07T21:33:29.742Z,4.60
2018-04-07T21:35:57.392Z,4.07
2018-04-07T21:38:25.050Z,4.53
2018-04-07T21:40:52.856Z,4.20
2018-04-07T21:43:20.457Z,4.53
2018-04-07T21:45:48.326Z,4.47
2018-04-07T21:48:16.126Z,4.67
2018-04-07T21:50:43.822Z,4.63
2018-04-07T21:53:12.627Z,4.67
2018-04-07T21:55:41.052Z,4.97
2018-04-07T21:58:08.765Z,4.57
2018-04-07T22:00:37.311Z,4.60
2018-04-07T22:03:07.514Z,5.00
2018-04-07T22:05:36.143Z,4.90
2018-04-07T22:08:03.879Z,4.80
2018-04-07T22:10:31.561Z,4.50
2018-04-07T22:12:59.305Z,4.70
2018-04-07T22:15:28.055Z,4.53
2018-04-07T22:17:55.846Z,4.57
2018-04-07T22:20:24.387Z,4.60
2018-04-07T22:22:52.115Z,4.03
2018-04-07T22:25:19.708Z,4.97
2018-04-07T22:27:47.359Z,4.27
2018-04-07T22:30:14.952Z,3.93
2018-04-07T22:32:42.569Z,4.90
2018-04-07T22:35:10.196Z,4.30
2018-04-07T22:37:37.830Z,4.20
2018-04-07T22:40:05.426Z,4.10
2018-04-07T22:42:33.052Z,4.40
2018-04-07T22:45:00.676Z,4.43
2018-04-07T22:47:29.061Z,4.17
2018-04-07T22:49:57.440Z,4.40
2018-04-07T22:52:25.832Z,4.37
2018-04-07T22:54:54.224Z,4.67
2018-04-07T22:57:21.837Z,4.50
2018-04-07T22:59:49.462Z,4.17
2018-04-07T23:02:17.076Z,4.60
2018-04-07T23:04:48.240Z,4.10
2018-04-07T23:07:15.865Z,4.17
2018-04-07T23:09:43.493Z,4.50
2018-04-07T23:12:11.108Z,4.50
2018-04-07T23:14:38.723Z,3.77
2018-04-07T23:17:06.353Z,4.47
2018-04-07T23:19:34.004Z,4.60
2018-04-07T23:22:01.601Z,4.43
2018-04-07T23:24:29.212Z,4.27
2018-04-07T23:26:56.837Z,4.50
2018-04-07T23:29:24.454Z,4.40
2018-04-07T23:31:52.081Z,4.03
2018-04-07T23:34:20.465Z,4.33
2018-04-07T23:36:48.085Z,4.23
2018-04-07T23:39:15.704Z,4.83
2018-04-07T23:41:43.325Z,4.07
2018-04-07T23:44:10.997Z,4.43
2018-04-07T23:46:38.619Z,4.40
2018-04-07T23:49:06.232Z,4.30
2018-04-07T23:51:33.849Z,4.70
2018-04-07T23:54:01.473Z,3.90
2018-04-07T23:56:29.089Z,4.17
2018-04-07T23:58:56.707Z,4.27
